F/V Le Gamin — FQLG — position and weather

sailwx.info

Track history (hours):
 
Tides and Currents Weather Stations Pressure Air Temp Water Temp Dewpoint Dewpoint Depression Visibility Wind Speed Wind Dir Waves Ship Positions

F/V Le Gamin

Last reported at 2017-Sep-20 17:59 UTC. Time now 2017-Sep-20 18:29 UTC.
Position N 47°15' W 002°46'.

Length 15 m.

Type: Fishing. MMSI: 227876000.

Date/timePositionNaut miles runAvg speedWind from/ knotsBaromVisibWave heightAir tempDewpointWater temp
2017-Sep-20 17:59N 47°15' W 002°46'2 5.0
2017-Sep-20 17:30N 47°16' W 002°43'4 8.2
2017-Sep-20 17:00N 47°19' W 002°39'4 8.6
2017-Sep-20 16:30N 47°19' W 002°32'1 0.1
2017-Sep-20 00:59N 47°18' W 002°31'0 0.0
2017-Sep-20 00:29N 47°18' W 002°31'1 1.7
2017-Sep-19 23:58N 47°19' W 002°31'4 8.5
2017-Sep-19 23:30N 47°19' W 002°37'5 9.0
2017-Sep-19 23:00N 47°18' W 002°44'4 8.0
2017-Sep-19 22:30N 47°16' W 002°49'3 4.9
2017-Sep-19 21:58N 47°15' W 002°53'1 2.6
2017-Sep-19 21:28N 47°15' W 002°54'1 2.8
2017-Sep-19 20:58N 47°14' W 002°56'1 2.7
2017-Sep-19 20:28N 47°13' W 002°57'2 2.6
2017-Sep-19 19:52N 47°12' W 002°59'1 2.6
2017-Sep-19 19:28N 47°11' W 002°60'1 2.6
2017-Sep-19 18:55N 47°09' W 003°01'1 2.6
2017-Sep-19 18:28N 47°09' W 003°02'1 3.0
2017-Sep-19 17:58N 47°07' W 003°03'2 0.2
2017-Sep-19 03:10N 47°07' W 002°60'1 2.9
2017-Sep-19 02:55N 47°06' W 002°59'1 2.9
2017-Sep-19 02:30N 47°05' W 002°58'2 3.0
2017-Sep-19 01:55N 47°03' W 002°57'1 3.0
2017-Sep-19 01:29N 47°02' W 002°56'2 3.0
2017-Sep-19 00:56N 47°01' W 002°55'3 1.0
2017-Sep-18 21:56N 47°03' W 002°58'2 2.4
2017-Sep-18 21:14N 47°02' W 002°57'1 2.9
2017-Sep-18 20:59N 47°01' W 002°56'1 2.9
2017-Sep-18 20:28N 46°60' W 002°55'9 0.8
2017-Sep-18 08:23N 47°02' W 002°42'2 2.9
2017-Sep-18 07:50N 47°01' W 002°44'5 1.6
2017-Sep-18 04:48N 47°05' W 002°38'3 9.7
2017-Sep-18 04:29N 47°08' W 002°38'5 9.5
2017-Sep-18 03:59N 47°12' W 002°36'4 9.2
2017-Sep-18 03:30N 47°17' W 002°35'3 5.4
2017-Sep-18 03:00N 47°18' W 002°31'0 0.0
2017-Sep-16 02:50N 47°18' W 002°31'0 0.0
2017-Sep-16 01:12N 47°18' W 002°31'2 6.5
2017-Sep-16 00:57N 47°19' W 002°33'4 7.9
2017-Sep-16 00:30N 47°16' W 002°35'5 8.4
2017-Sep-15 23:58N 47°11' W 002°36'4 8.3
2017-Sep-15 23:28N 47°07' W 002°37'10 0.3
2017-Sep-14 14:18N 47°17' W 002°35'3 8.9
2017-Sep-14 14:00N 47°19' W 002°33'1 0.6
2017-Sep-14 12:15N 47°19' W 002°34'3 7.9
2017-Sep-14 11:50N 47°16' W 002°37'7 5.5
2017-Sep-14 10:33N 47°15' W 002°47'0 2.9
2017-Sep-14 10:31N 47°15' W 002°47'4 2.5
2017-Sep-14 08:56N 47°16' W 002°52'1 2.8
2017-Sep-14 08:28N 47°16' W 002°54'1 2.8
2017-Sep-14 08:00N 47°15' W 002°55'1 2.3
2017-Sep-14 07:30N 47°14' W 002°54'0 1.0
2017-Sep-14 07:00N 47°13' W 002°54'1 2.6
2017-Sep-14 06:30N 47°12' W 002°55'9 0.3
2017-Sep-13 01:51N 47°03' W 002°54'11 2.3
2017-Sep-12 21:02N 47°14' W 002°49'2 1.9
2017-Sep-12 19:55N 47°16' W 002°51'1 2.8
2017-Sep-12 19:30N 47°16' W 002°52'1 2.3
2017-Sep-12 18:59N 47°15' W 002°53'1 2.7
2017-Sep-12 18:29N 47°14' W 002°52'1 2.3
2017-Sep-12 17:59N 47°14' W 002°51'1 2.3
2017-Sep-12 17:29N 47°14' W 002°49'1 2.6
2017-Sep-12 17:00N 47°15' W 002°48'3 6.8
2017-Sep-12 16:30N 47°17' W 002°43'4 8.3
2017-Sep-12 16:00N 47°19' W 002°38'4 8.5
2017-Sep-12 15:30N 47°19' W 002°32'1 0.2
2017-Sep-12 09:45N 47°18' W 002°31'0 0.0
2017-Sep-12 09:30N 47°18' W 002°31'0 0.0
2017-Sep-12 08:57N 47°18' W 002°31'0 0.0
2017-Sep-12 08:30N 47°18' W 002°31'0 0.0
2017-Sep-12 07:18N 47°18' W 002°31'0 0.0
2017-Sep-12 06:56N 47°18' W 002°31'0 0.0
2017-Sep-12 06:24N 47°18' W 002°31'0 0.0
2017-Sep-12 06:00N 47°18' W 002°31'0 0.0
2017-Sep-12 05:30N 47°18' W 002°31'0 0.1
2017-Sep-12 05:00N 47°18' W 002°31'  
Track history (hours):
 
Tides and Currents Weather Stations Pressure Air Temp Water Temp Dewpoint Dewpoint Depression Visibility Wind Speed Wind Dir Waves Ship Positions

F/V Le Gamin

Last reported at 2017-Sep-20 17:59 UTC. Time now 2017-Sep-20 18:29 UTC.
Position N 47°15' W 002°46'.

Length 15 m.

Type: Fishing. MMSI: 227876000.

Date/timePositionNaut miles runAvg speedWind from/ knotsBaromVisibWave heightAir tempDewpointWater temp
2017-Sep-20 17:59N 47°15' W 002°46'2 5.0
2017-Sep-20 17:30N 47°16' W 002°43'4 8.2
2017-Sep-20 17:00N 47°19' W 002°39'4 8.6
2017-Sep-20 16:30N 47°19' W 002°32'1 0.1
2017-Sep-20 00:59N 47°18' W 002°31'0 0.0
2017-Sep-20 00:29N 47°18' W 002°31'1 1.7
2017-Sep-19 23:58N 47°19' W 002°31'4 8.5
2017-Sep-19 23:30N 47°19' W 002°37'5 9.0
2017-Sep-19 23:00N 47°18' W 002°44'4 8.0
2017-Sep-19 22:30N 47°16' W 002°49'3 4.9
2017-Sep-19 21:58N 47°15' W 002°53'1 2.6
2017-Sep-19 21:28N 47°15' W 002°54'1 2.8
2017-Sep-19 20:58N 47°14' W 002°56'1 2.7
2017-Sep-19 20:28N 47°13' W 002°57'2 2.6
2017-Sep-19 19:52N 47°12' W 002°59'1 2.6
2017-Sep-19 19:28N 47°11' W 002°60'1 2.6
2017-Sep-19 18:55N 47°09' W 003°01'1 2.6
2017-Sep-19 18:28N 47°09' W 003°02'1 3.0
2017-Sep-19 17:58N 47°07' W 003°03'2 0.2
2017-Sep-19 03:10N 47°07' W 002°60'1 2.9
2017-Sep-19 02:55N 47°06' W 002°59'1 2.9
2017-Sep-19 02:30N 47°05' W 002°58'2 3.0
2017-Sep-19 01:55N 47°03' W 002°57'1 3.0
2017-Sep-19 01:29N 47°02' W 002°56'2 3.0
2017-Sep-19 00:56N 47°01' W 002°55'3 1.0
2017-Sep-18 21:56N 47°03' W 002°58'2 2.4
2017-Sep-18 21:14N 47°02' W 002°57'1 2.9
2017-Sep-18 20:59N 47°01' W 002°56'1 2.9
2017-Sep-18 20:28N 46°60' W 002°55'9 0.8
2017-Sep-18 08:23N 47°02' W 002°42'2 2.9
2017-Sep-18 07:50N 47°01' W 002°44'5 1.6
2017-Sep-18 04:48N 47°05' W 002°38'3 9.7
2017-Sep-18 04:29N 47°08' W 002°38'5 9.5
2017-Sep-18 03:59N 47°12' W 002°36'4 9.2
2017-Sep-18 03:30N 47°17' W 002°35'3 5.4
2017-Sep-18 03:00N 47°18' W 002°31'0 0.0
2017-Sep-16 02:50N 47°18' W 002°31'0 0.0
2017-Sep-16 01:12N 47°18' W 002°31'2 6.5
2017-Sep-16 00:57N 47°19' W 002°33'4 7.9
2017-Sep-16 00:30N 47°16' W 002°35'5 8.4
2017-Sep-15 23:58N 47°11' W 002°36'4 8.3
2017-Sep-15 23:28N 47°07' W 002°37'10 0.3
2017-Sep-14 14:18N 47°17' W 002°35'3 8.9
2017-Sep-14 14:00N 47°19' W 002°33'1 0.6
2017-Sep-14 12:15N 47°19' W 002°34'3 7.9
2017-Sep-14 11:50N 47°16' W 002°37'7 5.5
2017-Sep-14 10:33N 47°15' W 002°47'0 2.9
2017-Sep-14 10:31N 47°15' W 002°47'4 2.5
2017-Sep-14 08:56N 47°16' W 002°52'1 2.8
2017-Sep-14 08:28N 47°16' W 002°54'1 2.8
2017-Sep-14 08:00N 47°15' W 002°55'1 2.3
2017-Sep-14 07:30N 47°14' W 002°54'0 1.0
2017-Sep-14 07:00N 47°13' W 002°54'1 2.6
2017-Sep-14 06:30N 47°12' W 002°55'9 0.3
2017-Sep-13 01:51N 47°03' W 002°54'11 2.3
2017-Sep-12 21:02N 47°14' W 002°49'2 1.9
2017-Sep-12 19:55N 47°16' W 002°51'1 2.8
2017-Sep-12 19:30N 47°16' W 002°52'1 2.3
2017-Sep-12 18:59N 47°15' W 002°53'1 2.7
2017-Sep-12 18:29N 47°14' W 002°52'1 2.3
2017-Sep-12 17:59N 47°14' W 002°51'1 2.3
2017-Sep-12 17:29N 47°14' W 002°49'1 2.6
2017-Sep-12 17:00N 47°15' W 002°48'3 6.8
2017-Sep-12 16:30N 47°17' W 002°43'4 8.3
2017-Sep-12 16:00N 47°19' W 002°38'4 8.5
2017-Sep-12 15:30N 47°19' W 002°32'1 0.2
2017-Sep-12 09:45N 47°18' W 002°31'0 0.0
2017-Sep-12 09:30N 47°18' W 002°31'0 0.0
2017-Sep-12 08:57N 47°18' W 002°31'0 0.0
2017-Sep-12 08:30N 47°18' W 002°31'0 0.0
2017-Sep-12 07:18N 47°18' W 002°31'0 0.0
2017-Sep-12 06:56N 47°18' W 002°31'0 0.0
2017-Sep-12 06:24N 47°18' W 002°31'0 0.0
2017-Sep-12 06:00N 47°18' W 002°31'0 0.0
2017-Sep-12 05:30N 47°18' W 002°31'0 0.1
2017-Sep-12 05:00N 47°18' W 002°31'  

Dump ship's entire track history